Time;durP1;ratioP1;P1;durP2;ratioP2;P2;SDS_P1;SDS_P2;PMS_P1;PMS_P2;Temp;Humidity;BMP_temperature;BMP_pressure;BME280_temperature;BME280_humidity;BME280_pressure;Samples;Min_cycle;Max_cycle;Signal;HPM_P1;HPM_P2
2023/10/24 00:49:43;;;;;;;4.80;4.30;;;;;;;11.88;79.43;98860.44;102540;1292;616377;-22
2023/10/24 00:52:10;;;;;;;6.10;4.60;;;;;;;11.68;78.64;98864.45;104850;1267;61067;-22
2023/10/24 00:54:37;;;;;;;5.60;4.40;;;;;;;11.41;78.86;98865.27;105077;1269;61119;-22
2023/10/24 00:57:04;;;;;;;6.50;4.20;;;;;;;11.13;79.37;98862.88;105064;1267;72224;-22
2023/10/24 00:59:31;;;;;;;6.30;4.60;;;;;;;10.86;80.41;98860.14;104871;1267;74673;-22
2023/10/24 01:01:58;;;;;;;4.40;3.50;;;;;;;10.66;81.04;98860.77;102516;1267;3103912;-22
2023/10/24 01:04:26;;;;;;;5.50;3.20;;;;;;;11.03;81.00;98861.95;105339;1257;61203;-23
2023/10/24 01:06:53;;;;;;;6.20;3.60;;;;;;;11.50;80.01;98856.34;105379;1258;61151;-23
2023/10/24 01:09:20;;;;;;;6.30;3.90;;;;;;;11.54;79.21;98852.83;105658;1257;72203;-22
2023/10/24 01:11:49;;;;;;;5.60;4.10;;;;;;;11.34;79.26;98854.27;105594;1258;74149;-23
2023/10/24 01:14:16;;;;;;;5.70;4.60;;;;;;;11.09;79.83;98857.09;105526;1259;72729;-22
2023/10/24 01:16:43;;;;;;;6.70;4.50;;;;;;;10.86;80.37;98855.73;105504;1259;61155;-23
2023/10/24 01:19:14;;;;;;;5.30;3.40;;;;;;;10.68;80.53;98857.27;105111;1263;61364;-23
2023/10/24 01:21:43;;;;;;;5.80;2.80;;;;;;;11.08;81.16;98863.09;105353;1257;73051;-22
2023/10/24 01:24:13;;;;;;;5.00;3.70;;;;;;;11.56;79.63;98859.80;105321;1258;74343;-22
2023/10/24 01:26:41;;;;;;;7.40;4.00;;;;;;;11.60;78.97;98852.73;105100;1256;72661;-23
2023/10/24 01:29:09;;;;;;;5.80;4.30;;;;;;;11.38;78.81;98853.77;105233;1260;61119;-22
2023/10/24 01:31:36;;;;;;;7.20;4.80;;;;;;;11.01;79.69;98856.55;105402;1263;61509;-23
2023/10/24 01:34:03;;;;;;;7.90;4.80;;;;;;;10.71;79.99;98858.77;105579;1257;72865;-22
2023/10/24 01:36:30;;;;;;;5.20;3.10;;;;;;;10.49;81.16;98866.33;105646;1257;74183;-22
2023/10/24 01:38:57;;;;;;;4.00;2.80;;;;;;;10.84;81.84;98865.31;105471;1257;72561;-22
2023/10/24 01:41:24;;;;;;;4.50;3.60;;;;;;;11.35;80.35;98863.37;105389;1256;61058;-23
2023/10/24 01:43:51;;;;;;;7.50;5.10;;;;;;;11.41;79.07;98864.41;105587;1260;61160;-23
2023/10/24 01:46:18;;;;;;;7.50;4.60;;;;;;;11.21;79.11;98872.19;105445;1257;73431;-22
2023/10/24 01:48:45;;;;;;;5.30;4.30;;;;;;;10.97;79.37;98874.82;105169;1257;74153;-23
2023/10/24 01:51:12;;;;;;;8.40;4.40;;;;;;;10.69;79.78;98881.48;105352;1258;72757;-23
2023/10/24 01:53:39;;;;;;;5.70;4.10;;;;;;;10.42;80.85;98884.73;105313;1257;61076;-23
2023/10/24 01:56:06;;;;;;;3.80;2.90;;;;;;;10.73;81.69;98883.45;105510;1260;61144;-23
2023/10/24 01:58:33;;;;;;;5.90;3.60;;;;;;;11.18;80.53;98887.09;105420;1258;72023;-23
2023/10/24 02:00:59;;;;;;;4.20;3.60;;;;;;;11.20;79.91;98885.15;105391;1257;74423;-23
2023/10/24 02:03:27;;;;;;;5.40;3.90;;;;;;;11.00;80.05;98883.25;105615;1256;71537;-23
2023/10/24 02:05:54;;;;;;;6.10;4.70;;;;;;;10.74;80.82;98887.13;105587;1256;61160;-23
2023/10/24 02:08:21;;;;;;;7.00;4.40;;;;;;;10.48;81.10;98888.27;105334;1263;61149;-23
2023/10/24 02:10:48;;;;;;;6.50;3.80;;;;;;;10.24;81.63;98891.23;105599;1257;72969;-23
2023/10/24 02:13:15;;;;;;;4.40;2.80;;;;;;;10.58;81.99;98887.45;105553;1257;74596;-23
2023/10/24 02:15:41;;;;;;;4.70;3.80;;;;;;;11.04;81.00;98884.99;105291;1262;73219;-23
2023/10/24 02:18:08;;;;;;;6.50;4.20;;;;;;;11.08;80.55;98881.52;105605;1257;61035;-23
2023/10/24 02:20:38;;;;;;;10.40;4.30;;;;;;;10.90;80.85;98880.83;105528;1257;61214;-23
2023/10/24 02:23:05;;;;;;;7.70;4.40;;;;;;;10.65;81.23;98884.08;105538;1257;73020;-23
2023/10/24 02:25:36;;;;;;;8.20;4.50;;;;;;;10.44;81.62;98880.45;105621;1257;74879;-23
2023/10/24 02:28:04;;;;;;;6.90;3.10;;;;;;;10.29;82.43;98882.22;105517;1263;73681;-23
2023/10/24 02:30:31;;;;;;;6.80;3.60;;;;;;;10.72;82.30;98880.23;105346;1257;61061;-23
2023/10/24 02:33:02;;;;;;;4.80;3.50;;;;;;;11.22;81.17;98879.32;105584;1257;61163;-23
2023/10/24 02:35:29;;;;;;;5.20;3.80;;;;;;;11.24;80.16;98876.48;105459;1257;73256;-23
2023/10/24 02:37:55;;;;;;;6.20;4.00;;;;;;;11.05;80.45;98878.60;105389;1258;74333;-23
2023/10/24 02:40:22;;;;;;;6.70;4.10;;;;;;;10.82;80.61;98875.59;105420;1257;72478;-23
2023/10/24 02:42:49;;;;;;;6.60;5.10;;;;;;;10.58;81.07;98876.34;105157;1258;61178;-23
2023/10/24 02:45:16;;;;;;;5.50;3.30;;;;;;;10.39;81.62;98870.33;105121;1259;61158;-23
2023/10/24 02:47:43;;;;;;;4.90;2.90;;;;;;;10.73;81.59;98874.73;105335;1257;73594;-23
2023/10/24 02:50:10;;;;;;;5.60;3.50;;;;;;;11.18;80.42;98881.71;105539;1257;74445;-23
2023/10/24 02:52:38;;;;;;;3.70;3.20;;;;;;;11.16;79.77;98879.58;105655;1257;72713;-23
2023/10/24 02:55:06;;;;;;;7.10;4.00;;;;;;;10.96;80.17;98879.59;105541;1257;61057;-23
2023/10/24 02:57:33;;;;;;;6.50;4.30;;;;;;;10.64;80.40;98881.77;105199;1257;61146;-23
2023/10/24 03:00:00;;;;;;;6.00;4.60;;;;;;;10.27;81.49;98884.98;105336;1257;72886;-23
2023/10/24 03:02:28;;;;;;;4.30;3.50;;;;;;;10.03;81.85;98884.02;105385;1260;74162;-22
2023/10/24 03:04:55;;;;;;;4.70;3.20;;;;;;;10.38;82.12;98883.36;105431;1257;72709;-23
2023/10/24 03:07:24;;;;;;;5.40;3.80;;;;;;;10.87;81.03;98884.19;105561;1257;61064;-23
2023/10/24 03:09:51;;;;;;;8.10;4.30;;;;;;;10.88;80.19;98879.56;105156;1258;61188;-23
2023/10/24 03:12:18;;;;;;;5.80;4.30;;;;;;;10.67;80.33;98878.18;105486;1257;72971;-23
2023/10/24 03:14:45;;;;;;;6.90;4.50;;;;;;;10.42;80.54;98876.84;105415;1256;74395;-23
2023/10/24 03:17:12;;;;;;;7.30;4.80;;;;;;;10.14;81.18;98876.30;105318;1257;72661;-23
2023/10/24 03:19:39;;;;;;;7.80;3.80;;;;;;;9.93;82.22;98873.84;105426;1257;61721;-23
2023/10/24 03:22:06;;;;;;;5.80;3.40;;;;;;;10.30;82.50;98877.96;105207;1262;61135;-23
2023/10/24 03:24:33;;;;;;;7.80;4.20;;;;;;;10.78;81.42;98874.50;105453;1258;72885;-23
2023/10/24 03:26:59;;;;;;;5.90;4.40;;;;;;;10.82;80.85;98875.05;105429;1257;74620;-23
2023/10/24 03:29:26;;;;;;;7.60;4.80;;;;;;;10.60;80.67;98876.70;105333;1257;72699;-23
2023/10/24 03:31:54;;;;;;;8.30;5.80;;;;;;;10.32;81.22;98877.79;105528;1257;61500;-22
2023/10/24 03:34:21;;;;;;;10.20;5.60;;;;;;;10.08;81.60;98882.72;105586;1257;61079;-23
2023/10/24 03:36:48;;;;;;;6.30;3.90;;;;;;;9.89;82.45;98882.33;105586;1257;72944;-23
2023/10/24 03:39:14;;;;;;;5.50;4.00;;;;;;;10.27;82.50;98879.42;105571;1257;74335;-23
2023/10/24 03:41:41;;;;;;;6.00;4.50;;;;;;;10.73;81.39;98877.89;105558;1256;72551;-23
2023/10/24 03:44:08;;;;;;;8.20;5.00;;;;;;;10.74;80.78;98880.93;105605;1257;61146;-23
2023/10/24 03:46:35;;;;;;;8.60;4.70;;;;;;;10.58;80.97;98878.29;105621;1260;61102;-23
2023/10/24 03:49:02;;;;;;;9.40;6.00;;;;;;;10.33;81.26;98879.44;105615;1257;73055;-23
2023/10/24 03:51:29;;;;;;;10.40;5.70;;;;;;;10.03;82.17;98879.42;105443;1258;74290;-23
2023/10/24 03:53:56;;;;;;;7.90;4.70;;;;;;;9.78;83.58;98875.60;105360;1260;72747;-23
2023/10/24 03:56:23;;;;;;;7.20;4.50;;;;;;;10.10;83.94;98872.43;105522;1256;61112;-23
2023/10/24 03:58:49;;;;;;;9.90;5.80;;;;;;;10.53;82.52;98871.55;105556;1257;61063;-23
2023/10/24 04:01:16;;;;;;;8.90;5.60;;;;;;;10.45;81.87;98868.42;105529;1257;73021;-23
2023/10/24 04:03:43;;;;;;;8.40;5.50;;;;;;;10.19;82.80;98870.21;105542;1263;74725;-23
2023/10/24 04:06:11;;;;;;;9.30;6.20;;;;;;;9.92;83.61;98876.33;105603;1258;72725;-23
2023/10/24 04:08:38;;;;;;;9.80;6.30;;;;;;;9.69;83.96;98877.89;105584;1256;61068;-23
2023/10/24 04:11:16;;;;;;;8.20;4.70;;;;;;;9.51;84.08;98878.63;105409;1262;61164;-23
2023/10/24 04:13:43;;;;;;;6.70;4.60;;;;;;;9.94;84.11;98878.41;105596;1257;71705;-23
2023/10/24 04:16:10;;;;;;;6.80;4.50;;;;;;;10.33;82.39;98875.08;105547;1257;74595;-23
2023/10/24 04:18:38;;;;;;;7.60;4.70;;;;;;;10.30;81.90;98876.07;105690;1257;72357;-23
2023/10/24 04:21:05;;;;;;;6.30;4.90;;;;;;;10.12;82.15;98879.98;105450;1257;61098;-23
2023/10/24 04:23:32;;;;;;;7.50;5.00;;;;;;;9.83;82.34;98880.05;105496;1260;61157;-23
2023/10/24 04:25:59;;;;;;;13.80;6.80;;;;;;;9.53;82.29;98881.70;105547;1257;73067;-23
2023/10/24 04:28:26;;;;;;;7.10;4.30;;;;;;;9.17;84.08;98879.35;105503;1260;74371;-23
2023/10/24 04:30:53;;;;;;;6.40;5.00;;;;;;;9.38;85.26;98880.29;105316;1257;72629;-23
2023/10/24 04:33:20;;;;;;;9.80;5.40;;;;;;;9.72;84.56;98880.02;105575;1256;61094;-23
2023/10/24 04:35:47;;;;;;;9.10;6.50;;;;;;;9.69;83.97;98880.27;105486;1260;61092;-23
2023/10/24 04:38:14;;;;;;;9.90;6.20;;;;;;;9.51;84.30;98879.78;105311;1257;73053;-23
2023/10/24 04:40:41;;;;;;;8.40;6.10;;;;;;;9.30;84.46;98881.42;105620;1257;74197;-23
2023/10/24 04:43:08;;;;;;;10.00;7.10;;;;;;;9.12;84.58;98886.51;105661;1257;72542;-23
2023/10/24 04:45:36;;;;;;;6.80;4.80;;;;;;;8.97;84.87;98889.39;105548;1258;62677;-23
2023/10/24 04:48:03;;;;;;;7.20;4.70;;;;;;;9.43;85.05;98892.91;105488;1258;61148;-23
2023/10/24 04:50:31;;;;;;;6.90;5.00;;;;;;;9.98;83.30;98896.53;105442;1257;73123;-23
2023/10/24 04:52:58;;;;;;;10.70;5.70;;;;;;;10.04;82.52;98897.11;105245;1257;74314;-23
2023/10/24 04:55:25;;;;;;;6.30;5.20;;;;;;;9.88;82.11;98901.13;105613;1260;72002;-23
2023/10/24 04:57:54;;;;;;;11.00;6.40;;;;;;;9.66;82.25;98896.27;105353;1263;61244;-23
2023/10/24 05:00:21;;;;;;;9.40;6.40;;;;;;;9.45;82.70;98895.84;105513;1260;61154;-23
2023/10/24 05:02:48;;;;;;;11.50;5.40;;;;;;;9.26;83.44;98895.44;105618;1257;73755;-23
2023/10/24 05:05:14;;;;;;;6.50;4.90;;;;;;;9.65;83.79;98895.67;105550;1257;74359;-23
2023/10/24 05:07:41;;;;;;;8.10;5.70;;;;;;;10.20;82.43;98900.30;105617;1257;72415;-23
2023/10/24 05:10:10;;;;;;;12.40;6.10;;;;;;;10.26;81.21;98902.02;105465;1256;61066;-23
2023/10/24 05:12:37;;;;;;;8.50;6.30;;;;;;;10.07;81.44;98906.39;105262;1258;61106;-23
2023/10/24 05:15:05;;;;;;;11.30;6.40;;;;;;;9.87;82.08;98909.71;105216;1257;74414;-23
2023/10/24 05:17:32;;;;;;;9.60;6.80;;;;;;;9.62;82.83;98908.05;105310;1263;74734;-23
2023/10/24 05:20:01;;;;;;;7.80;5.90;;;;;;;9.44;83.59;98907.08;105512;1256;72739;-23
2023/10/24 05:22:28;;;;;;;7.70;6.10;;;;;;;9.86;83.90;98909.41;105626;1260;61170;-23
2023/10/24 05:24:55;;;;;;;9.80;6.40;;;;;;;10.40;82.22;98912.39;105673;1257;61054;-23
2023/10/24 05:27:22;;;;;;;9.10;6.60;;;;;;;10.48;81.44;98916.55;105581;1257;73833;-23
2023/10/24 05:29:49;;;;;;;9.00;6.80;;;;;;;10.40;81.38;98918.42;105585;1260;74303;-23
2023/10/24 05:32:16;;;;;;;11.00;7.80;;;;;;;10.24;81.87;98923.37;105602;1257;72328;-23
2023/10/24 05:34:43;;;;;;;11.60;7.30;;;;;;;10.02;82.34;98924.27;105399;1258;61165;-22
2023/10/24 05:37:10;;;;;;;9.90;6.40;;;;;;;9.82;83.30;98929.17;105424;1260;61074;-22
2023/10/24 05:39:37;;;;;;;7.60;5.70;;;;;;;10.17;83.58;98928.05;105440;1257;73732;-22
2023/10/24 05:42:04;;;;;;;10.80;6.40;;;;;;;10.67;81.71;98925.06;105435;1258;74345;-22
2023/10/24 05:44:31;;;;;;;10.80;7.00;;;;;;;10.70;80.70;98926.59;105177;1257;72407;-22
2023/10/24 05:46:58;;;;;;;10.80;7.10;;;;;;;10.53;81.02;98921.60;105445;1260;61058;-22
2023/10/24 05:49:25;;;;;;;10.00;7.30;;;;;;;10.34;81.30;98923.06;105617;1260;61177;-22
2023/10/24 05:51:52;;;;;;;9.30;7.60;;;;;;;10.15;81.93;98926.70;105657;1257;74133;-23
2023/10/24 05:54:19;;;;;;;9.70;6.60;;;;;;;10.01;82.05;98931.88;105670;1260;74413;-23
2023/10/24 05:56:46;;;;;;;8.90;5.90;;;;;;;10.42;82.32;98932.33;105638;1257;72473;-23
2023/10/24 05:59:12;;;;;;;9.70;6.50;;;;;;;10.95;81.13;98934.72;105563;1256;61149;-22
2023/10/24 06:01:42;;;;;;;9.30;6.50;;;;;;;10.92;79.99;98936.54;105620;1257;61010;-22
2023/10/24 06:04:10;;;;;;;9.90;7.20;;;;;;;10.70;79.94;98935.44;105617;1257;73857;-22
2023/10/24 06:06:36;;;;;;;9.70;6.60;;;;;;;10.45;80.41;98930.50;105602;1257;74289;-23
2023/10/24 06:09:04;;;;;;;12.80;7.90;;;;;;;10.13;81.53;98927.26;105589;1257;72653;-22
2023/10/24 06:11:31;;;;;;;9.70;6.50;;;;;;;9.84;82.70;98926.38;105621;1257;62597;-22
2023/10/24 06:13:58;;;;;;;7.90;6.00;;;;;;;10.19;83.44;98928.84;105608;1257;61148;-22
2023/10/24 06:16:27;;;;;;;9.50;7.20;;;;;;;10.77;82.22;98930.52;105627;1260;73826;-23
2023/10/24 06:18:54;;;;;;;8.40;6.90;;;;;;;10.83;80.95;98926.48;105318;1258;74610;-22
2023/10/24 06:21:21;;;;;;;10.90;7.70;;;;;;;10.76;81.10;98926.59;105548;1257;72657;-22
2023/10/24 06:23:47;;;;;;;10.20;7.60;;;;;;;10.70;81.37;98924.45;105499;1260;61099;-22
2023/10/24 06:26:15;;;;;;;9.60;7.40;;;;;;;10.63;81.49;98925.58;105616;1257;61103;-22
2023/10/24 06:28:42;;;;;;;7.40;5.90;;;;;;;10.56;81.81;98923.22;105416;1257;73869;-23
2023/10/24 06:31:10;;;;;;;7.10;5.00;;;;;;;11.09;81.77;98918.42;105549;1257;74310;-22
2023/10/24 06:33:37;;;;;;;11.00;7.50;;;;;;;11.49;78.95;98917.13;105591;1260;72717;-23
2023/10/24 06:36:06;;;;;;;9.10;7.00;;;;;;;11.42;78.63;98918.79;105631;1260;61178;-22
2023/10/24 06:38:33;;;;;;;11.80;8.00;;;;;;;11.15;78.81;98921.21;105505;1257;61190;-22
2023/10/24 06:40:59;;;;;;;11.10;7.70;;;;;;;10.91;79.69;98921.66;105574;1257;73867;-23
2023/10/24 06:43:27;;;;;;;11.00;8.10;;;;;;;10.75;80.44;98921.84;105366;1257;74171;-22
2023/10/24 06:45:54;;;;;;;9.70;8.70;;;;;;;10.66;80.94;98924.09;105454;1256;72669;-23
2023/10/24 06:48:21;;;;;;;9.30;5.80;;;;;;;10.65;81.39;98923.64;105215;1260;62589;-23
2023/10/24 06:50:48;;;;;;;11.60;6.50;;;;;;;11.35;81.01;98926.33;105605;1260;61170;-22
2023/10/24 06:53:15;;;;;;;8.10;6.80;;;;;;;11.97;78.67;98925.92;105627;1257;73768;-22
2023/10/24 06:55:42;;;;;;;8.10;6.90;;;;;;;12.18;76.90;98927.72;105655;1260;74311;-22
2023/10/24 06:58:09;;;;;;;12.20;8.30;;;;;;;12.05;76.23;98927.36;105670;1257;72667;-22
2023/10/24 07:00:35;;;;;;;9.00;7.40;;;;;;;12.01;77.36;98923.16;105509;1258;61064;-23
2023/10/24 07:03:02;;;;;;;11.40;8.10;;;;;;;12.11;77.52;98920.04;105583;1260;61144;-22
2023/10/24 07:05:30;;;;;;;12.30;8.80;;;;;;;12.20;77.12;98926.20;105221;1257;73537;-22
2023/10/24 07:07:58;;;;;;;11.90;8.60;;;;;;;12.15;76.81;98929.04;105473;1260;74153;-22
2023/10/24 07:10:25;;;;;;;10.70;8.90;;;;;;;12.31;76.97;98930.58;105427;1259;72323;-22
2023/10/24 07:12:52;;;;;;;10.30;8.10;;;;;;;12.46;76.55;98929.58;105580;1257;61041;-22
2023/10/24 07:15:19;;;;;;;12.20;9.70;;;;;;;12.51;76.71;98930.40;105497;1260;61192;-22
2023/10/24 07:17:45;;;;;;;15.70;9.80;;;;;;;12.68;76.13;98932.33;105403;1257;73192;-23
2023/10/24 07:20:12;;;;;;;10.70;9.10;;;;;;;12.90;74.92;98934.95;105590;1257;74839;-23
2023/10/24 07:22:39;;;;;;;12.50;9.50;;;;;;;13.11;74.09;98939.91;105540;1257;72750;-22
2023/10/24 07:25:07;;;;;;;13.00;9.70;;;;;;;13.21;74.17;98941.38;105415;1257;61063;-23
2023/10/24 07:27:34;;;;;;;16.10;10.60;;;;;;;13.30;73.51;98937.02;105304;1263;61189;-23
2023/10/24 07:30:01;;;;;;;11.30;9.80;;;;;;;13.35;73.66;98942.69;105293;1257;73884;-23
2023/10/24 07:32:28;;;;;;;15.10;10.50;;;;;;;13.35;73.87;98946.12;105563;1258;74863;-23
2023/10/24 07:34:56;;;;;;;12.50;9.60;;;;;;;13.47;73.40;98944.14;105620;1257;72677;-23
2023/10/24 07:37:24;;;;;;;13.50;10.20;;;;;;;13.57;73.36;98943.09;105579;1257;61046;-23
2023/10/24 07:39:51;;;;;;;15.30;10.70;;;;;;;13.55;74.07;98945.33;105388;1259;61154;-23
2023/10/24 07:42:18;;;;;;;19.40;11.50;;;;;;;13.60;73.89;98947.02;105649;1257;73774;-23
2023/10/24 07:44:45;;;;;;;18.70;13.00;;;;;;;13.62;73.76;98945.89;105616;1260;74263;-23
2023/10/24 07:47:12;;;;;;;17.40;11.20;;;;;;;13.65;73.50;98941.59;105592;1257;72411;-22
2023/10/24 07:49:39;;;;;;;17.30;11.90;;;;;;;13.77;73.15;98943.55;105571;1257;61149;-23
2023/10/24 07:52:06;;;;;;;15.90;11.50;;;;;;;13.86;72.88;98943.67;105635;1257;61192;-24
2023/10/24 07:54:33;;;;;;;14.40;10.20;;;;;;;13.96;72.84;98945.80;105487;1257;73815;-23
2023/10/24 07:57:02;;;;;;;13.50;9.70;;;;;;;14.12;72.17;98945.98;105580;1260;74972;-22
2023/10/24 07:59:32;;;;;;;12.60;9.70;;;;;;;14.27;71.25;98937.39;105409;1258;73274;-22
2023/10/24 08:01:59;;;;;;;11.70;9.00;;;;;;;14.28;70.94;98938.83;105484;1257;61079;-22
2023/10/24 08:04:26;;;;;;;10.50;8.60;;;;;;;14.26;71.33;98942.32;105550;1257;61164;-22
2023/10/24 08:06:54;;;;;;;29.20;9.40;;;;;;;14.44;70.55;98938.19;105568;1257;73895;-22
2023/10/24 08:09:21;;;;;;;11.80;8.20;;;;;;;14.49;70.34;98936.70;105561;1260;74347;-23
2023/10/24 08:11:47;;;;;;;10.50;8.10;;;;;;;14.48;70.05;98932.50;105529;1257;72443;-22
2023/10/24 08:14:14;;;;;;;10.80;7.60;;;;;;;14.51;69.77;98929.73;105365;1260;61179;-23
2023/10/24 08:16:41;;;;;;;10.30;7.50;;;;;;;14.60;69.66;98927.79;105209;1258;61190;-23
2023/10/24 08:19:08;;;;;;;10.00;7.50;;;;;;;14.71;68.68;98930.27;105535;1257;74413;-22
2023/10/24 08:21:35;;;;;;;11.90;7.60;;;;;;;14.89;68.48;98927.07;105540;1260;74354;-22
2023/10/24 08:24:02;;;;;;;8.80;7.00;;;;;;;15.04;67.19;98924.39;105536;1257;72702;-22
2023/10/24 08:26:29;;;;;;;9.80;6.30;;;;;;;15.34;67.26;98924.80;105527;1257;61061;-23
2023/10/24 08:28:56;;;;;;;9.10;6.00;;;;;;;15.74;66.55;98927.33;105600;1259;61150;-22
2023/10/24 08:31:23;;;;;;;9.60;6.80;;;;;;;16.11;65.57;98920.10;105530;1257;73359;-22
2023/10/24 08:33:50;;;;;;;8.60;6.10;;;;;;;16.47;64.89;98917.19;105546;1258;74307;-23
2023/10/24 08:36:17;;;;;;;9.40;5.70;;;;;;;16.74;63.13;98917.95;105255;1260;72630;-22
2023/10/24 08:38:43;;;;;;;7.40;5.90;;;;;;;16.84;59.95;98917.41;105225;1258;61214;-22
2023/10/24 08:41:10;;;;;;;10.10;6.20;;;;;;;16.87;59.94;98918.30;105437;1257;60995;-23
2023/10/24 08:43:37;;;;;;;8.60;4.80;;;;;;;16.81;59.89;98920.30;105330;1258;73828;-22
2023/10/24 08:46:07;;;;;;;6.90;4.70;;;;;;;16.58;58.97;98924.59;105410;1257;74216;-23
2023/10/24 08:48:34;;;;;;;8.30;4.60;;;;;;;16.65;59.14;98928.04;105514;1257;72609;-23
2023/10/24 08:51:01;;;;;;;8.30;5.70;;;;;;;16.78;59.53;98922.61;105328;1257;61106;-22
2023/10/24 08:53:28;;;;;;;6.30;4.50;;;;;;;16.69;59.33;98920.58;105385;1260;61182;-25
2023/10/24 08:55:57;;;;;;;6.50;4.80;;;;;;;16.81;58.79;98923.29;105627;1257;73979;-24
2023/10/24 08:58:25;;;;;;;22.60;5.50;;;;;;;16.67;59.34;98936.25;105646;1258;74897;-23
2023/10/24 09:00:52;;;;;;;9.80;4.60;;;;;;;16.72;59.68;98937.97;105456;1258;73125;-23
2023/10/24 09:03:19;;;;;;;7.30;4.90;;;;;;;17.09;58.91;98935.81;105434;1257;61100;-25
2023/10/24 09:05:47;;;;;;;6.80;4.50;;;;;;;17.23;58.82;98926.75;105472;1262;61144;-24
2023/10/24 09:08:14;;;;;;;6.60;4.10;;;;;;;17.38;56.81;98923.77;105389;1257;73046;-23
2023/10/24 09:10:46;;;;;;;5.50;4.00;;;;;;;17.54;56.99;98920.42;105432;1257;74297;-23
2023/10/24 09:13:13;;;;;;;6.30;4.00;;;;;;;17.40;56.34;98912.30;105568;1258;72647;-23
2023/10/24 09:15:40;;;;;;;6.00;4.30;;;;;;;17.80;56.18;98905.15;105582;1257;61118;-24
2023/10/24 09:18:07;;;;;;;7.10;5.00;;;;;;;17.90;55.14;98894.08;105113;1263;61182;-24
2023/10/24 09:20:35;;;;;;;6.90;3.70;;;;;;;17.83;55.60;98895.39;105256;1257;73808;-23
2023/10/24 09:23:08;;;;;;;7.10;3.70;;;;;;;17.85;54.05;98894.28;105534;1257;74898;-22
2023/10/24 09:25:35;;;;;;;3.90;2.90;;;;;;;17.66;54.76;98894.02;105629;1257;73345;-23
2023/10/24 09:28:16;;;;;;;4.30;2.70;;;;;;;17.40;55.36;98894.77;105451;1258;61126;-23
2023/10/24 09:30:43;;;;;;;5.90;2.90;;;;;;;17.05;55.35;98895.66;105488;1259;62030;-22
2023/10/24 09:33:10;;;;;;;4.10;2.70;;;;;;;16.80;55.97;98901.23;105540;1258;73855;-23
2023/10/24 09:35:38;;;;;;;7.60;2.70;;;;;;;16.61;57.11;98903.20;105337;1258;74106;-22
2023/10/24 09:38:06;;;;;;;4.40;3.10;;;;;;;16.50;57.67;98899.71;105521;1257;72704;-23
2023/10/24 09:40:36;;;;;;;4.50;2.40;;;;;;;16.21;57.71;98894.95;105192;1257;61014;-22
2023/10/24 09:43:17;;;;;;;6.00;2.20;;;;;;;16.01;57.11;98890.23;105341;1257;61163;-23
2023/10/24 09:45:44;;;;;;;5.20;2.50;;;;;;;15.77;57.55;98884.45;105474;1257;72421;-23
2023/10/24 09:48:11;;;;;;;4.90;2.30;;;;;;;15.59;59.33;98880.74;105531;1262;75200;-23
2023/10/24 09:50:41;;;;;;;5.20;2.70;;;;;;;15.52;59.63;98880.96;105193;1256;72371;-22
2023/10/24 09:53:08;;;;;;;4.70;2.50;;;;;;;15.54;59.72;98885.30;105515;1256;61184;-23
2023/10/24 09:55:35;;;;;;;5.90;2.60;;;;;;;15.75;59.43;98882.73;105417;1260;61137;-25
2023/10/24 09:58:04;;;;;;;7.40;2.90;;;;;;;16.19;58.57;98875.83;105300;1257;73731;-24
2023/10/24 10:00:34;;;;;;;8.60;4.10;;;;;;;16.39;57.47;98870.91;105497;1262;75345;-23
2023/10/24 10:03:01;;;;;;;6.70;5.40;;;;;;;16.23;56.71;98864.45;105553;1263;72656;-24
2023/10/24 10:05:29;;;;;;;9.60;7.50;;;;;;;16.37;57.47;98856.20;105577;1257;61141;-25
2023/10/24 10:07:57;;;;;;;3.90;2.30;;;;;;;16.77;55.96;98843.63;105399;1261;61160;-27
2023/10/24 10:10:24;;;;;;;3.60;1.90;;;;;;;17.03;54.58;98836.62;105343;1257;73807;-24
2023/10/24 10:12:53;;;;;;;4.00;2.00;;;;;;;17.45;53.65;98833.80;105431;1257;74330;-25
2023/10/24 10:15:34;;;;;;;2.50;1.60;;;;;;;17.81;52.53;98833.48;105265;1263;71697;-21
2023/10/24 10:18:30;;;;;;;3.20;1.70;;;;;;;17.90;50.75;98832.70;105253;1257;61145;-22
2023/10/24 10:21:29;;;;;;;4.10;1.80;;;;;;;17.86;50.72;98830.08;105283;1261;61051;-22
2023/10/24 10:24:11;;;;;;;4.40;1.90;;;;;;;17.55;50.98;98818.15;105652;1258;73700;-23
2023/10/24 10:26:59;;;;;;;3.80;1.90;;;;;;;17.29;52.09;98814.02;105574;1262;74888;-22
2023/10/24 10:29:57;;;;;;;3.80;1.80;;;;;;;17.36;51.62;98809.60;105520;1258;73266;-23
2023/10/24 10:32:48;;;;;;;3.30;1.50;;;;;;;17.29;51.71;98799.91;105470;1258;61086;-21
2023/10/24 10:35:55;;;;;;;4.20;1.60;;;;;;;17.25;51.60;98801.86;105307;1265;61112;-23
2023/10/24 10:38:45;;;;;;;2.20;1.20;;;;;;;16.94;50.98;98799.20;105464;1262;73537;-23
2023/10/24 10:41:22;;;;;;;3.60;1.50;;;;;;;16.68;52.17;98800.63;105541;1262;72198;-23
2023/10/24 10:43:50;;;;;;;3.70;1.70;;;;;;;16.56;52.95;98796.77;105577;1257;72750;-24
2023/10/24 10:46:18;;;;;;;3.20;1.60;;;;;;;16.51;53.39;98792.67;105144;1258;61071;-23
2023/10/24 10:48:49;;;;;;;3.20;1.70;;;;;;;16.44;53.32;98790.70;105358;1257;61052;-23
2023/10/24 10:51:20;;;;;;;3.20;1.60;;;;;;;16.39;53.02;98794.02;105186;1257;74408;-23
2023/10/24 10:54:12;;;;;;;3.10;1.50;;;;;;;16.31;53.12;98790.91;105454;1263;74901;-23
2023/10/24 10:56:39;;;;;;;3.70;1.60;;;;;;;16.23;52.74;98787.34;105437;1257;72452;-23
2023/10/24 10:59:07;;;;;;;4.90;2.20;;;;;;;16.16;53.22;98782.23;105229;1259;61122;-23
2023/10/24 11:02:08;;;;;;;4.30;1.80;;;;;;;16.12;53.64;98778.02;105564;1260;61173;-23
2023/10/24 11:04:35;;;;;;;4.00;2.00;;;;;;;16.03;53.57;98776.58;105560;1257;73742;-23
2023/10/24 11:07:06;;;;;;;4.90;1.60;;;;;;;15.81;53.83;98784.66;105522;1263;74828;-23
2023/10/24 11:09:35;;;;;;;3.20;1.50;;;;;;;15.78;54.54;98781.80;105122;1258;73369;-23
2023/10/24 11:12:21;;;;;;;2.70;1.50;;;;;;;15.77;54.86;98782.66;105285;1265;61201;-23
2023/10/24 11:15:06;;;;;;;4.80;1.80;;;;;;;15.86;54.47;98776.75;105566;1260;61098;-24
2023/10/24 11:17:33;;;;;;;2.60;1.50;;;;;;;16.13;53.64;98766.88;105556;1262;73823;-23
2023/10/24 11:20:02;;;;;;;1.80;1.10;;;;;;;16.38;53.56;98755.23;105564;1262;74479;-23
2023/10/24 11:22:47;;;;;;;3.20;1.70;;;;;;;16.61;53.33;98761.09;105341;1257;72677;-23
2023/10/24 11:25:17;;;;;;;3.40;2.20;;;;;;;17.01;53.08;98763.05;105594;1258;61055;-23
2023/10/24 11:27:46;;;;;;;4.40;2.00;;;;;;;17.27;53.03;98753.48;105490;1259;61750;-23
2023/10/24 11:30:13;;;;;;;3.80;2.20;;;;;;;17.45;51.94;98735.81;105532;1257;74399;-23
2023/10/24 11:32:40;;;;;;;3.10;1.60;;;;;;;17.72;51.93;98735.43;105404;1263;75897;-23
2023/10/24 11:35:09;;;;;;;2.90;1.90;;;;;;;18.02;51.52;98737.95;105272;1260;72788;-23
2023/10/24 11:37:36;;;;;;;5.90;2.10;;;;;;;18.30;50.75;98744.14;105175;1257;61165;-23
2023/10/24 11:40:03;;;;;;;4.50;2.40;;;;;;;18.52;49.72;98749.67;105269;1260;61170;-23
2023/10/24 11:42:31;;;;;;;3.90;1.90;;;;;;;18.72;49.30;98743.38;105393;1258;73806;-24
2023/10/24 11:44:58;;;;;;;4.00;1.90;;;;;;;18.98;48.40;98745.75;105417;1260;74341;-24
2023/10/24 11:47:25;;;;;;;4.50;1.80;;;;;;;19.16;48.21;98743.83;105392;1260;73378;-23
2023/10/24 11:49:51;;;;;;;3.20;1.90;;;;;;;19.30;47.97;98731.73;105142;1260;61116;-24
2023/10/24 11:52:18;;;;;;;2.50;1.70;;;;;;;19.45;46.73;98727.67;105269;1257;61061;-24
2023/10/24 11:54:51;;;;;;;2.50;1.80;;;;;;;19.35;46.85;98723.01;105527;1258;74528;-24
2023/10/24 11:57:25;;;;;;;4.60;1.80;;;;;;;19.02;47.88;98725.45;105601;1257;74604;-24
2023/10/24 11:59:53;;;;;;;4.70;2.10;;;;;;;18.62;47.26;98717.17;105512;1258;73280;-24
2023/10/24 12:02:21;;;;;;;3.80;2.20;;;;;;;18.02;48.61;98715.16;105256;1258;61135;-23
2023/10/24 12:04:52;;;;;;;4.60;1.90;;;;;;;17.86;49.91;98712.91;105465;1263;61182;-24
2023/10/24 12:07:19;;;;;;;7.40;2.30;;;;;;;17.88;49.65;98711.35;105236;1258;73956;-22
2023/10/24 12:09:46;;;;;;;3.80;2.10;;;;;;;17.73;49.75;98706.52;105396;1260;74563;-23
2023/10/24 12:12:13;;;;;;;5.00;2.60;;;;;;;17.24;51.08;98703.91;105455;1257;72599;-23
2023/10/24 12:14:42;;;;;;;5.00;2.00;;;;;;;17.05;51.85;98706.77;105532;1260;60992;-23
2023/10/24 12:17:09;;;;;;;3.30;1.90;;;;;;;17.22;52.15;98706.98;105388;1261;61260;-23
2023/10/24 12:19:37;;;;;;;4.40;1.70;;;;;;;17.39;51.36;98706.31;105434;1257;73854;-23